sensor_id;sensor_type;location;lat;lon;timestamp;P1;durP1;ratioP1;P2;durP2;ratioP2
72586;SDS011;60621;49.576;11.024;2023-02-28T00:00:22;5.75;;;2.60;;
72586;SDS011;60621;49.576;11.024;2023-02-28T00:01:23;5.20;;;2.20;;
72586;SDS011;60621;49.576;11.024;2023-02-28T00:02:26;5.70;;;2.50;;
72586;SDS011;60621;49.576;11.024;2023-02-28T00:03:28;5.38;;;2.40;;
72586;SDS011;60621;49.576;11.024;2023-02-28T00:04:29;6.18;;;2.60;;
72586;SDS011;60621;49.576;11.024;2023-02-28T00:05:31;7.60;;;2.72;;
72586;SDS011;60621;49.576;11.024;2023-02-28T00:06:33;6.53;;;2.50;;
72586;SDS011;60621;49.576;11.024;2023-02-28T00:07:34;5.65;;;2.40;;
72586;SDS011;60621;49.576;11.024;2023-02-28T00:08:37;6.53;;;2.67;;
72586;SDS011;60621;49.576;11.024;2023-02-28T00:09:39;6.80;;;2.80;;
72586;SDS011;60621;49.576;11.024;2023-02-28T00:10:40;5.93;;;2.38;;
72586;SDS011;60621;49.576;11.024;2023-02-28T00:11:42;6.00;;;2.40;;
72586;SDS011;60621;49.576;11.024;2023-02-28T00:12:43;6.22;;;2.60;;
72586;SDS011;60621;49.576;11.024;2023-02-28T00:13:45;6.38;;;2.80;;
72586;SDS011;60621;49.576;11.024;2023-02-28T00:14:48;5.82;;;2.40;;
72586;SDS011;60621;49.576;11.024;2023-02-28T00:15:58;7.30;;;2.90;;
72586;SDS011;60621;49.576;11.024;2023-02-28T00:17:00;6.75;;;2.58;;
72586;SDS011;60621;49.576;11.024;2023-02-28T00:18:02;5.85;;;3.00;;
72586;SDS011;60621;49.576;11.024;2023-02-28T00:19:04;6.82;;;2.70;;
72586;SDS011;60621;49.576;11.024;2023-02-28T00:20:06;8.00;;;2.85;;
72586;SDS011;60621;49.576;11.024;2023-02-28T00:21:13;5.68;;;2.40;;
72586;SDS011;60621;49.576;11.024;2023-02-28T00:22:15;5.88;;;2.63;;
72586;SDS011;60621;49.576;11.024;2023-02-28T00:23:18;5.55;;;2.58;;
72586;SDS011;60621;49.576;11.024;2023-02-28T00:24:20;5.90;;;2.80;;
72586;SDS011;60621;49.576;11.024;2023-02-28T00:25:23;7.38;;;2.40;;
72586;SDS011;60621;49.576;11.024;2023-02-28T00:26:25;6.85;;;2.92;;
72586;SDS011;60621;49.576;11.024;2023-02-28T00:27:27;8.52;;;3.30;;
72586;SDS011;60621;49.576;11.024;2023-02-28T00:28:28;5.50;;;2.60;;
72586;SDS011;60621;49.576;11.024;2023-02-28T00:29:30;6.32;;;2.80;;
72586;SDS011;60621;49.576;11.024;2023-02-28T00:30:32;6.00;;;2.70;;
72586;SDS011;60621;49.576;11.024;2023-02-28T00:31:33;5.72;;;2.65;;
72586;SDS011;60621;49.576;11.024;2023-02-28T00:32:35;7.45;;;2.90;;
72586;SDS011;60621;49.576;11.024;2023-02-28T00:33:37;5.68;;;2.50;;
72586;SDS011;60621;49.576;11.024;2023-02-28T00:34:39;5.60;;;2.53;;
72586;SDS011;60621;49.576;11.024;2023-02-28T00:35:40;7.45;;;2.75;;
72586;SDS011;60621;49.576;11.024;2023-02-28T00:36:42;6.57;;;2.92;;
72586;SDS011;60621;49.576;11.024;2023-02-28T00:37:47;7.75;;;2.65;;
72586;SDS011;60621;49.576;11.024;2023-02-28T00:38:49;8.23;;;3.13;;
72586;SDS011;60621;49.576;11.024;2023-02-28T00:39:51;7.07;;;3.08;;
72586;SDS011;60621;49.576;11.024;2023-02-28T00:40:53;7.00;;;2.85;;
72586;SDS011;60621;49.576;11.024;2023-02-28T00:41:54;6.25;;;2.88;;
72586;SDS011;60621;49.576;11.024;2023-02-28T00:42:56;5.75;;;2.65;;
72586;SDS011;60621;49.576;11.024;2023-02-28T00:43:57;6.35;;;2.85;;
72586;SDS011;60621;49.576;11.024;2023-02-28T00:44:59;6.90;;;2.90;;
72586;SDS011;60621;49.576;11.024;2023-02-28T00:46:01;6.50;;;2.70;;
72586;SDS011;60621;49.576;11.024;2023-02-28T00:47:03;7.45;;;2.90;;
72586;SDS011;60621;49.576;11.024;2023-02-28T00:48:05;7.50;;;3.10;;
72586;SDS011;60621;49.576;11.024;2023-02-28T00:49:07;7.40;;;2.80;;
72586;SDS011;60621;49.576;11.024;2023-02-28T00:50:09;6.05;;;3.00;;
72586;SDS011;60621;49.576;11.024;2023-02-28T00:51:11;6.38;;;2.85;;
72586;SDS011;60621;49.576;11.024;2023-02-28T00:52:12;6.75;;;3.00;;
72586;SDS011;60621;49.576;11.024;2023-02-28T00:53:14;7.03;;;2.88;;
72586;SDS011;60621;49.576;11.024;2023-02-28T00:54:16;7.80;;;2.70;;
72586;SDS011;60621;49.576;11.024;2023-02-28T00:55:17;6.70;;;2.78;;
72586;SDS011;60621;49.576;11.024;2023-02-28T00:56:19;7.07;;;3.00;;
72586;SDS011;60621;49.576;11.024;2023-02-28T00:57:21;6.35;;;2.65;;
72586;SDS011;60621;49.576;11.024;2023-02-28T00:58:23;6.53;;;3.15;;
72586;SDS011;60621;49.576;11.024;2023-02-28T00:59:25;5.68;;;2.85;;
72586;SDS011;60621;49.576;11.024;2023-02-28T01:00:27;8.57;;;2.90;;
72586;SDS011;60621;49.576;11.024;2023-02-28T01:01:28;7.13;;;2.85;;
72586;SDS011;60621;49.576;11.024;2023-02-28T01:02:30;7.30;;;3.30;;
72586;SDS011;60621;49.576;11.024;2023-02-28T01:03:32;7.22;;;2.80;;
72586;SDS011;60621;49.576;11.024;2023-02-28T01:04:34;7.32;;;3.00;;
72586;SDS011;60621;49.576;11.024;2023-02-28T01:05:35;6.68;;;2.78;;
72586;SDS011;60621;49.576;11.024;2023-02-28T01:06:36;7.80;;;3.20;;
72586;SDS011;60621;49.576;11.024;2023-02-28T01:07:38;8.05;;;2.90;;
72586;SDS011;60621;49.576;11.024;2023-02-28T01:08:39;6.32;;;2.85;;
72586;SDS011;60621;49.576;11.024;2023-02-28T01:09:41;6.70;;;2.78;;
72586;SDS011;60621;49.576;11.024;2023-02-28T01:10:43;5.97;;;2.80;;
72586;SDS011;60621;49.576;11.024;2023-02-28T01:11:44;7.75;;;3.10;;
72586;SDS011;60621;49.576;11.024;2023-02-28T01:12:46;6.45;;;2.83;;
72586;SDS011;60621;49.576;11.024;2023-02-28T01:13:47;8.48;;;3.13;;
72586;SDS011;60621;49.576;11.024;2023-02-28T01:14:49;6.15;;;2.78;;
72586;SDS011;60621;49.576;11.024;2023-02-28T01:15:52;6.00;;;2.95;;
72586;SDS011;60621;49.576;11.024;2023-02-28T01:16:55;5.93;;;2.75;;
72586;SDS011;60621;49.576;11.024;2023-02-28T01:17:57;6.68;;;3.15;;
72586;SDS011;60621;49.576;11.024;2023-02-28T01:18:59;7.28;;;3.22;;
72586;SDS011;60621;49.576;11.024;2023-02-28T01:20:01;7.78;;;3.20;;
72586;SDS011;60621;49.576;11.024;2023-02-28T01:21:03;6.60;;;2.88;;
72586;SDS011;60621;49.576;11.024;2023-02-28T01:22:08;7.35;;;2.88;;
72586;SDS011;60621;49.576;11.024;2023-02-28T01:23:10;6.25;;;3.05;;
72586;SDS011;60621;49.576;11.024;2023-02-28T01:24:13;8.48;;;3.13;;
72586;SDS011;60621;49.576;11.024;2023-02-28T01:25:14;7.13;;;2.80;;
72586;SDS011;60621;49.576;11.024;2023-02-28T01:26:17;6.90;;;3.00;;
72586;SDS011;60621;49.576;11.024;2023-02-28T01:27:21;6.75;;;3.05;;
72586;SDS011;60621;49.576;11.024;2023-02-28T01:28:22;8.65;;;2.97;;
72586;SDS011;60621;49.576;11.024;2023-02-28T01:29:24;6.80;;;2.70;;
72586;SDS011;60621;49.576;11.024;2023-02-28T01:30:25;6.88;;;3.13;;
72586;SDS011;60621;49.576;11.024;2023-02-28T01:31:27;7.32;;;3.20;;
72586;SDS011;60621;49.576;11.024;2023-02-28T01:32:29;7.68;;;3.22;;
72586;SDS011;60621;49.576;11.024;2023-02-28T01:33:30;7.72;;;3.08;;
72586;SDS011;60621;49.576;11.024;2023-02-28T01:34:32;7.90;;;3.33;;
72586;SDS011;60621;49.576;11.024;2023-02-28T01:35:34;6.53;;;3.20;;
72586;SDS011;60621;49.576;11.024;2023-02-28T01:36:36;7.35;;;2.88;;
72586;SDS011;60621;49.576;11.024;2023-02-28T01:37:38;7.43;;;3.05;;
72586;SDS011;60621;49.576;11.024;2023-02-28T01:38:39;7.43;;;3.30;;
72586;SDS011;60621;49.576;11.024;2023-02-28T01:39:41;6.18;;;2.80;;
72586;SDS011;60621;49.576;11.024;2023-02-28T01:40:43;6.22;;;2.78;;
72586;SDS011;60621;49.576;11.024;2023-02-28T01:41:44;6.35;;;2.92;;
72586;SDS011;60621;49.576;11.024;2023-02-28T01:42:46;7.30;;;3.17;;
72586;SDS011;60621;49.576;11.024;2023-02-28T01:45:00;8.13;;;2.95;;
72586;SDS011;60621;49.576;11.024;2023-02-28T01:46:04;6.28;;;2.88;;
72586;SDS011;60621;49.576;11.024;2023-02-28T01:47:05;7.75;;;3.33;;
72586;SDS011;60621;49.576;11.024;2023-02-28T01:48:07;7.47;;;3.10;;
72586;SDS011;60621;49.576;11.024;2023-02-28T01:49:11;7.93;;;3.40;;
72586;SDS011;60621;49.576;11.024;2023-02-28T01:50:17;6.85;;;2.97;;
72586;SDS011;60621;49.576;11.024;2023-02-28T01:51:22;7.70;;;3.00;;
72586;SDS011;60621;49.576;11.024;2023-02-28T01:52:29;6.05;;;2.83;;
72586;SDS011;60621;49.576;11.024;2023-02-28T01:53:34;8.00;;;3.10;;
72586;SDS011;60621;49.576;11.024;2023-02-28T01:54:40;7.28;;;3.42;;
72586;SDS011;60621;49.576;11.024;2023-02-28T01:55:42;6.95;;;3.13;;
72586;SDS011;60621;49.576;11.024;2023-02-28T01:56:52;6.70;;;3.13;;
72586;SDS011;60621;49.576;11.024;2023-02-28T01:57:59;7.18;;;3.38;;
72586;SDS011;60621;49.576;11.024;2023-02-28T01:59:03;7.00;;;2.90;;
72586;SDS011;60621;49.576;11.024;2023-02-28T02:00:10;6.80;;;2.90;;
72586;SDS011;60621;49.576;11.024;2023-02-28T02:01:15;6.50;;;2.88;;
72586;SDS011;60621;49.576;11.024;2023-02-28T02:02:22;7.80;;;3.40;;
72586;SDS011;60621;49.576;11.024;2023-02-28T02:03:25;7.40;;;3.05;;
72586;SDS011;60621;49.576;11.024;2023-02-28T02:04:30;7.15;;;3.13;;
72586;SDS011;60621;49.576;11.024;2023-02-28T02:05:38;7.13;;;3.10;;
72586;SDS011;60621;49.576;11.024;2023-02-28T02:06:42;7.57;;;3.17;;
72586;SDS011;60621;49.576;11.024;2023-02-28T02:07:46;8.52;;;3.40;;
72586;SDS011;60621;49.576;11.024;2023-02-28T02:08:51;6.90;;;3.10;;
72586;SDS011;60621;49.576;11.024;2023-02-28T02:09:59;7.28;;;3.03;;
72586;SDS011;60621;49.576;11.024;2023-02-28T02:11:03;7.57;;;3.47;;
72586;SDS011;60621;49.576;11.024;2023-02-28T02:12:09;7.63;;;3.40;;
72586;SDS011;60621;49.576;11.024;2023-02-28T02:15:12;6.45;;;2.92;;
72586;SDS011;60621;49.576;11.024;2023-02-28T02:17:57;7.55;;;3.08;;
72586;SDS011;60621;49.576;11.024;2023-02-28T02:19:14;8.27;;;3.00;;
72586;SDS011;60621;49.576;11.024;2023-02-28T02:20:41;7.70;;;3.35;;
72586;SDS011;60621;49.576;11.024;2023-02-28T02:22:07;7.72;;;3.30;;
72586;SDS011;60621;49.576;11.024;2023-02-28T02:25:08;6.80;;;2.97;;
72586;SDS011;60621;49.576;11.024;2023-02-28T02:31:27;6.85;;;2.90;;
72586;SDS011;60621;49.576;11.024;2023-02-28T02:32:54;7.43;;;3.45;;
72586;SDS011;60621;49.576;11.024;2023-02-28T02:36:25;7.57;;;3.25;;
72586;SDS011;60621;49.576;11.024;2023-02-28T02:37:51;6.18;;;3.03;;
72586;SDS011;60621;49.576;11.024;2023-02-28T02:39:16;5.80;;;2.80;;
72586;SDS011;60621;49.576;11.024;2023-02-28T02:40:37;7.03;;;2.90;;
72586;SDS011;60621;49.576;11.024;2023-02-28T02:41:46;7.10;;;3.03;;
72586;SDS011;60621;49.576;11.024;2023-02-28T02:42:58;7.95;;;2.97;;
72586;SDS011;60621;49.576;11.024;2023-02-28T02:44:21;7.32;;;3.20;;
72586;SDS011;60621;49.576;11.024;2023-02-28T02:45:27;6.63;;;3.05;;
72586;SDS011;60621;49.576;11.024;2023-02-28T02:46:37;6.65;;;2.90;;
72586;SDS011;60621;49.576;11.024;2023-02-28T02:47:42;7.18;;;3.00;;
72586;SDS011;60621;49.576;11.024;2023-02-28T02:48:46;6.78;;;2.92;;
72586;SDS011;60621;49.576;11.024;2023-02-28T02:49:50;7.82;;;3.13;;
72586;SDS011;60621;49.576;11.024;2023-02-28T02:50:55;7.20;;;3.03;;
72586;SDS011;60621;49.576;11.024;2023-02-28T02:52:02;7.40;;;3.00;;
72586;SDS011;60621;49.576;11.024;2023-02-28T02:53:07;6.32;;;3.05;;
72586;SDS011;60621;49.576;11.024;2023-02-28T02:54:13;8.07;;;3.25;;
72586;SDS011;60621;49.576;11.024;2023-02-28T02:55:18;7.05;;;3.30;;
72586;SDS011;60621;49.576;11.024;2023-02-28T02:56:24;7.80;;;3.45;;
72586;SDS011;60621;49.576;11.024;2023-02-28T02:57:31;7.13;;;3.13;;
72586;SDS011;60621;49.576;11.024;2023-02-28T02:58:38;7.78;;;3.38;;
72586;SDS011;60621;49.576;11.024;2023-02-28T02:59:43;6.80;;;3.20;;
72586;SDS011;60621;49.576;11.024;2023-02-28T03:00:46;8.05;;;3.38;;
72586;SDS011;60621;49.576;11.024;2023-02-28T03:01:53;6.82;;;2.95;;
72586;SDS011;60621;49.576;11.024;2023-02-28T03:02:58;7.57;;;2.90;;
72586;SDS011;60621;49.576;11.024;2023-02-28T03:04:12;9.10;;;3.78;;
72586;SDS011;60621;49.576;11.024;2023-02-28T03:05:19;6.88;;;3.30;;
72586;SDS011;60621;49.576;11.024;2023-02-28T03:06:27;7.20;;;3.13;;
72586;SDS011;60621;49.576;11.024;2023-02-28T03:07:31;8.20;;;3.38;;
72586;SDS011;60621;49.576;11.024;2023-02-28T03:08:38;7.68;;;3.20;;
72586;SDS011;60621;49.576;11.024;2023-02-28T03:09:40;7.38;;;3.20;;
72586;SDS011;60621;49.576;11.024;2023-02-28T03:10:46;6.50;;;3.08;;
72586;SDS011;60621;49.576;11.024;2023-02-28T03:11:52;6.63;;;3.15;;
72586;SDS011;60621;49.576;11.024;2023-02-28T03:13:00;7.43;;;3.50;;
72586;SDS011;60621;49.576;11.024;2023-02-28T03:15:22;6.80;;;3.10;;
72586;SDS011;60621;49.576;11.024;2023-02-28T03:18:03;8.25;;;3.67;;
72586;SDS011;60621;49.576;11.024;2023-02-28T03:22:12;8.00;;;3.40;;
72586;SDS011;60621;49.576;11.024;2023-02-28T03:23:23;6.90;;;3.33;;
72586;SDS011;60621;49.576;11.024;2023-02-28T03:26:27;8.75;;;3.38;;
72586;SDS011;60621;49.576;11.024;2023-02-28T03:27:31;6.68;;;3.15;;
72586;SDS011;60621;49.576;11.024;2023-02-28T03:28:45;8.32;;;3.70;;
72586;SDS011;60621;49.576;11.024;2023-02-28T03:31:51;7.93;;;3.47;;
72586;SDS011;60621;49.576;11.024;2023-02-28T03:33:12;8.07;;;3.53;;
72586;SDS011;60621;49.576;11.024;2023-02-28T03:34:34;8.50;;;3.33;;
72586;SDS011;60621;49.576;11.024;2023-02-28T03:35:43;8.68;;;3.35;;
72586;SDS011;60621;49.576;11.024;2023-02-28T03:36:51;6.70;;;3.15;;
72586;SDS011;60621;49.576;11.024;2023-02-28T03:37:59;7.82;;;3.38;;
72586;SDS011;60621;49.576;11.024;2023-02-28T03:39:08;7.65;;;3.90;;
72586;SDS011;60621;49.576;11.024;2023-02-28T03:40:15;8.30;;;4.15;;
72586;SDS011;60621;49.576;11.024;2023-02-28T03:41:23;8.65;;;3.50;;
72586;SDS011;60621;49.576;11.024;2023-02-28T03:42:31;8.23;;;3.47;;
72586;SDS011;60621;49.576;11.024;2023-02-28T03:43:35;8.70;;;3.70;;
72586;SDS011;60621;49.576;11.024;2023-02-28T03:44:43;8.60;;;3.67;;
72586;SDS011;60621;49.576;11.024;2023-02-28T03:45:50;7.80;;;3.58;;
72586;SDS011;60621;49.576;11.024;2023-02-28T03:46:56;7.72;;;3.53;;
72586;SDS011;60621;49.576;11.024;2023-02-28T03:48:14;7.70;;;3.78;;
72586;SDS011;60621;49.576;11.024;2023-02-28T03:49:25;9.35;;;3.90;;
72586;SDS011;60621;49.576;11.024;2023-02-28T03:50:45;8.93;;;3.50;;
72586;SDS011;60621;49.576;11.024;2023-02-28T03:51:50;7.65;;;3.70;;
72586;SDS011;60621;49.576;11.024;2023-02-28T03:53:00;8.07;;;3.42;;
72586;SDS011;60621;49.576;11.024;2023-02-28T03:54:09;9.50;;;3.70;;
72586;SDS011;60621;49.576;11.024;2023-02-28T03:55:17;8.68;;;3.75;;
72586;SDS011;60621;49.576;11.024;2023-02-28T03:56:55;8.25;;;3.60;;
72586;SDS011;60621;49.576;11.024;2023-02-28T04:00:39;8.45;;;4.07;;
72586;SDS011;60621;49.576;11.024;2023-02-28T04:01:47;7.20;;;3.53;;
72586;SDS011;60621;49.576;11.024;2023-02-28T04:02:50;6.38;;;3.35;;
72586;SDS011;60621;49.576;11.024;2023-02-28T04:03:53;7.43;;;3.92;;
72586;SDS011;60621;49.576;11.024;2023-02-28T04:04:55;8.02;;;3.50;;
72586;SDS011;60621;49.576;11.024;2023-02-28T04:05:57;10.13;;;3.50;;
72586;SDS011;60621;49.576;11.024;2023-02-28T04:07:03;6.95;;;3.65;;
72586;SDS011;60621;49.576;11.024;2023-02-28T04:08:07;8.65;;;3.75;;
72586;SDS011;60621;49.576;11.024;2023-02-28T04:09:10;9.35;;;3.67;;
72586;SDS011;60621;49.576;11.024;2023-02-28T04:10:12;8.93;;;3.65;;
72586;SDS011;60621;49.576;11.024;2023-02-28T04:12:16;8.10;;;3.70;;
72586;SDS011;60621;49.576;11.024;2023-02-28T04:13:17;7.70;;;3.58;;
72586;SDS011;60621;49.576;11.024;2023-02-28T04:14:19;9.57;;;3.75;;
72586;SDS011;60621;49.576;11.024;2023-02-28T04:15:20;8.27;;;3.60;;
72586;SDS011;60621;49.576;11.024;2023-02-28T04:16:24;8.27;;;3.90;;
72586;SDS011;60621;49.576;11.024;2023-02-28T04:17:35;7.55;;;3.55;;
72586;SDS011;60621;49.576;11.024;2023-02-28T04:18:39;8.40;;;3.60;;
72586;SDS011;60621;49.576;11.024;2023-02-28T04:19:42;8.10;;;3.67;;
72586;SDS011;60621;49.576;11.024;2023-02-28T04:20:45;8.32;;;3.78;;
72586;SDS011;60621;49.576;11.024;2023-02-28T04:21:47;8.93;;;3.92;;
72586;SDS011;60621;49.576;11.024;2023-02-28T04:22:53;8.70;;;3.72;;
72586;SDS011;60621;49.576;11.024;2023-02-28T04:23:55;7.65;;;3.70;;
72586;SDS011;60621;49.576;11.024;2023-02-28T04:24:57;8.18;;;3.78;;
72586;SDS011;60621;49.576;11.024;2023-02-28T04:25:58;9.30;;;4.10;;
72586;SDS011;60621;49.576;11.024;2023-02-28T04:27:00;9.18;;;4.30;;
72586;SDS011;60621;49.576;11.024;2023-02-28T04:28:02;8.60;;;4.18;;
72586;SDS011;60621;49.576;11.024;2023-02-28T04:29:04;7.43;;;3.65;;
72586;SDS011;60621;49.576;11.024;2023-02-28T04:30:08;8.95;;;3.72;;
72586;SDS011;60621;49.576;11.024;2023-02-28T04:31:10;10.68;;;4.07;;
72586;SDS011;60621;49.576;11.024;2023-02-28T04:32:12;8.48;;;3.80;;
72586;SDS011;60621;49.576;11.024;2023-02-28T04:33:14;8.30;;;3.83;;
72586;SDS011;60621;49.576;11.024;2023-02-28T04:34:15;8.20;;;3.70;;
72586;SDS011;60621;49.576;11.024;2023-02-28T04:35:17;8.70;;;3.95;;
72586;SDS011;60621;49.576;11.024;2023-02-28T04:36:19;7.95;;;4.15;;
72586;SDS011;60621;49.576;11.024;2023-02-28T04:37:20;8.77;;;3.70;;
72586;SDS011;60621;49.576;11.024;2023-02-28T04:38:22;9.70;;;4.05;;
72586;SDS011;60621;49.576;11.024;2023-02-28T04:39:23;8.07;;;3.88;;
72586;SDS011;60621;49.576;11.024;2023-02-28T04:40:25;9.55;;;4.00;;
72586;SDS011;60621;49.576;11.024;2023-02-28T04:41:27;8.13;;;4.00;;
72586;SDS011;60621;49.576;11.024;2023-02-28T04:42:32;8.43;;;3.92;;
72586;SDS011;60621;49.576;11.024;2023-02-28T04:43:37;8.82;;;4.07;;
72586;SDS011;60621;49.576;11.024;2023-02-28T04:44:38;9.50;;;4.40;;
72586;SDS011;60621;49.576;11.024;2023-02-28T04:45:40;8.18;;;3.60;;
72586;SDS011;60621;49.576;11.024;2023-02-28T04:46:41;9.90;;;3.95;;
72586;SDS011;60621;49.576;11.024;2023-02-28T04:47:43;9.48;;;3.95;;
72586;SDS011;60621;49.576;11.024;2023-02-28T04:48:45;8.48;;;3.97;;
72586;SDS011;60621;49.576;11.024;2023-02-28T04:49:47;7.88;;;4.07;;
72586;SDS011;60621;49.576;11.024;2023-02-28T04:50:48;7.50;;;3.80;;
72586;SDS011;60621;49.576;11.024;2023-02-28T04:51:50;8.25;;;3.90;;
72586;SDS011;60621;49.576;11.024;2023-02-28T04:52:51;8.77;;;4.15;;
72586;SDS011;60621;49.576;11.024;2023-02-28T04:53:53;8.02;;;4.00;;
72586;SDS011;60621;49.576;11.024;2023-02-28T04:54:55;7.82;;;3.90;;
72586;SDS011;60621;49.576;11.024;2023-02-28T04:55:56;8.48;;;3.92;;
72586;SDS011;60621;49.576;11.024;2023-02-28T04:56:58;9.52;;;3.88;;
72586;SDS011;60621;49.576;11.024;2023-02-28T04:58:00;9.27;;;4.38;;
72586;SDS011;60621;49.576;11.024;2023-02-28T04:59:02;8.70;;;4.00;;
72586;SDS011;60621;49.576;11.024;2023-02-28T05:00:03;8.23;;;4.10;;
72586;SDS011;60621;49.576;11.024;2023-02-28T05:01:16;8.27;;;3.92;;
72586;SDS011;60621;49.576;11.024;2023-02-28T05:02:25;9.73;;;4.78;;
72586;SDS011;60621;49.576;11.024;2023-02-28T05:03:27;8.35;;;3.95;;
72586;SDS011;60621;49.576;11.024;2023-02-28T05:04:28;11.95;;;4.10;;
72586;SDS011;60621;49.576;11.024;2023-02-28T05:05:29;9.00;;;4.25;;
72586;SDS011;60621;49.576;11.024;2023-02-28T05:06:32;9.75;;;4.95;;
72586;SDS011;60621;49.576;11.024;2023-02-28T05:07:34;8.07;;;4.00;;
72586;SDS011;60621;49.576;11.024;2023-02-28T05:08:36;8.07;;;3.85;;
72586;SDS011;60621;49.576;11.024;2023-02-28T05:09:38;9.48;;;4.28;;
72586;SDS011;60621;49.576;11.024;2023-02-28T05:10:39;9.10;;;4.28;;
72586;SDS011;60621;49.576;11.024;2023-02-28T05:11:41;9.80;;;4.53;;
72586;SDS011;60621;49.576;11.024;2023-02-28T05:12:42;10.68;;;4.05;;
72586;SDS011;60621;49.576;11.024;2023-02-28T05:13:44;8.95;;;4.20;;
72586;SDS011;60621;49.576;11.024;2023-02-28T05:14:46;9.25;;;4.05;;
72586;SDS011;60621;49.576;11.024;2023-02-28T05:15:47;7.82;;;4.50;;
72586;SDS011;60621;49.576;11.024;2023-02-28T05:16:49;9.57;;;4.25;;
72586;SDS011;60621;49.576;11.024;2023-02-28T05:17:50;8.05;;;4.20;;
72586;SDS011;60621;49.576;11.024;2023-02-28T05:18:52;8.88;;;4.00;;
72586;SDS011;60621;49.576;11.024;2023-02-28T05:19:55;9.20;;;3.95;;
72586;SDS011;60621;49.576;11.024;2023-02-28T05:21:24;9.15;;;4.07;;
72586;SDS011;60621;49.576;11.024;2023-02-28T05:22:28;9.88;;;4.10;;
72586;SDS011;60621;49.576;11.024;2023-02-28T05:23:29;9.82;;;4.07;;
72586;SDS011;60621;49.576;11.024;2023-02-28T05:24:31;10.10;;;4.47;;
72586;SDS011;60621;49.576;11.024;2023-02-28T05:25:33;9.18;;;4.22;;
72586;SDS011;60621;49.576;11.024;2023-02-28T05:26:35;10.38;;;4.80;;
72586;SDS011;60621;49.576;11.024;2023-02-28T05:27:37;9.48;;;4.30;;
72586;SDS011;60621;49.576;11.024;2023-02-28T05:28:39;9.98;;;4.53;;
72586;SDS011;60621;49.576;11.024;2023-02-28T05:29:41;8.43;;;3.83;;
72586;SDS011;60621;49.576;11.024;2023-02-28T05:30:46;8.98;;;4.47;;
72586;SDS011;60621;49.576;11.024;2023-02-28T05:31:48;11.23;;;4.70;;
72586;SDS011;60621;49.576;11.024;2023-02-28T05:32:50;8.23;;;3.95;;
72586;SDS011;60621;49.576;11.024;2023-02-28T05:33:52;10.20;;;4.40;;
72586;SDS011;60621;49.576;11.024;2023-02-28T05:34:54;9.60;;;4.47;;
72586;SDS011;60621;49.576;11.024;2023-02-28T05:35:56;9.60;;;4.25;;
72586;SDS011;60621;49.576;11.024;2023-02-28T05:36:57;10.23;;;4.47;;
72586;SDS011;60621;49.576;11.024;2023-02-28T05:37:59;8.93;;;4.35;;
72586;SDS011;60621;49.576;11.024;2023-02-28T05:39:00;8.68;;;4.10;;
72586;SDS011;60621;49.576;11.024;2023-02-28T05:40:02;10.43;;;4.35;;
72586;SDS011;60621;49.576;11.024;2023-02-28T05:41:07;8.98;;;4.60;;
72586;SDS011;60621;49.576;11.024;2023-02-28T05:42:10;9.88;;;4.68;;
72586;SDS011;60621;49.576;11.024;2023-02-28T05:43:11;8.52;;;4.47;;
72586;SDS011;60621;49.576;11.024;2023-02-28T05:44:13;9.90;;;4.60;;
72586;SDS011;60621;49.576;11.024;2023-02-28T05:45:14;9.07;;;4.38;;
72586;SDS011;60621;49.576;11.024;2023-02-28T05:46:16;9.18;;;4.30;;
72586;SDS011;60621;49.576;11.024;2023-02-28T05:47:17;10.18;;;4.65;;
72586;SDS011;60621;49.576;11.024;2023-02-28T05:48:19;10.80;;;4.85;;
72586;SDS011;60621;49.576;11.024;2023-02-28T05:49:20;11.02;;;4.60;;
72586;SDS011;60621;49.576;11.024;2023-02-28T05:50:22;9.32;;;4.25;;
72586;SDS011;60621;49.576;11.024;2023-02-28T05:51:23;9.68;;;4.63;;
72586;SDS011;60621;49.576;11.024;2023-02-28T05:52:25;11.23;;;4.38;;
72586;SDS011;60621;49.576;11.024;2023-02-28T05:53:26;9.95;;;4.10;;
72586;SDS011;60621;49.576;11.024;2023-02-28T05:54:28;10.93;;;4.50;;
72586;SDS011;60621;49.576;11.024;2023-02-28T05:55:30;10.90;;;4.85;;
72586;SDS011;60621;49.576;11.024;2023-02-28T05:56:31;10.10;;;4.60;;
72586;SDS011;60621;49.576;11.024;2023-02-28T05:57:35;11.20;;;5.10;;
72586;SDS011;60621;49.576;11.024;2023-02-28T05:58:37;9.90;;;4.93;;
72586;SDS011;60621;49.576;11.024;2023-02-28T05:59:38;9.98;;;4.55;;
72586;SDS011;60621;49.576;11.024;2023-02-28T06:00:41;9.43;;;4.57;;
72586;SDS011;60621;49.576;11.024;2023-02-28T06:01:43;9.45;;;4.80;;
72586;SDS011;60621;49.576;11.024;2023-02-28T06:02:49;10.38;;;4.50;;
72586;SDS011;60621;49.576;11.024;2023-02-28T06:03:52;10.13;;;4.78;;
72586;SDS011;60621;49.576;11.024;2023-02-28T06:04:54;11.43;;;4.72;;
72586;SDS011;60621;49.576;11.024;2023-02-28T06:05:55;11.77;;;4.68;;
72586;SDS011;60621;49.576;11.024;2023-02-28T06:06:57;10.82;;;4.65;;
72586;SDS011;60621;49.576;11.024;2023-02-28T06:07:59;11.57;;;4.80;;
72586;SDS011;60621;49.576;11.024;2023-02-28T06:09:01;11.52;;;5.22;;
72586;SDS011;60621;49.576;11.024;2023-02-28T06:10:03;9.60;;;4.68;;
72586;SDS011;60621;49.576;11.024;2023-02-28T06:11:05;11.55;;;5.28;;
72586;SDS011;60621;49.576;11.024;2023-02-28T06:12:07;9.98;;;4.95;;
72586;SDS011;60621;49.576;11.024;2023-02-28T06:14:14;10.70;;;4.80;;
72586;SDS011;60621;49.576;11.024;2023-02-28T06:15:17;11.57;;;5.05;;
72586;SDS011;60621;49.576;11.024;2023-02-28T06:16:19;12.02;;;5.30;;
72586;SDS011;60621;49.576;11.024;2023-02-28T06:17:21;9.73;;;4.65;;
72586;SDS011;60621;49.576;11.024;2023-02-28T06:18:22;9.35;;;4.85;;
72586;SDS011;60621;49.576;11.024;2023-02-28T06:19:23;9.88;;;5.10;;
72586;SDS011;60621;49.576;11.024;2023-02-28T06:20:28;11.25;;;4.43;;
72586;SDS011;60621;49.576;11.024;2023-02-28T06:21:30;10.55;;;5.20;;
72586;SDS011;60621;49.576;11.024;2023-02-28T06:22:32;9.85;;;4.97;;
72586;SDS011;60621;49.576;11.024;2023-02-28T06:23:34;10.10;;;5.07;;
72586;SDS011;60621;49.576;11.024;2023-02-28T06:24:35;10.35;;;4.93;;
72586;SDS011;60621;49.576;11.024;2023-02-28T06:25:37;11.25;;;5.43;;
72586;SDS011;60621;49.576;11.024;2023-02-28T06:26:38;11.40;;;5.20;;
72586;SDS011;60621;49.576;11.024;2023-02-28T06:27:40;10.55;;;5.15;;
72586;SDS011;60621;49.576;11.024;2023-02-28T06:28:42;9.68;;;4.53;;
72586;SDS011;60621;49.576;11.024;2023-02-28T06:29:43;11.02;;;4.90;;
72586;SDS011;60621;49.576;11.024;2023-02-28T06:30:45;10.95;;;4.93;;
72586;SDS011;60621;49.576;11.024;2023-02-28T06:31:46;11.23;;;4.65;;
72586;SDS011;60621;49.576;11.024;2023-02-28T06:32:49;9.55;;;4.72;;
72586;SDS011;60621;49.576;11.024;2023-02-28T06:33:51;11.07;;;4.82;;
72586;SDS011;60621;49.576;11.024;2023-02-28T06:34:55;11.82;;;5.43;;
72586;SDS011;60621;49.576;11.024;2023-02-28T06:35:58;10.23;;;5.07;;
72586;SDS011;60621;49.576;11.024;2023-02-28T06:37:06;13.13;;;5.10;;
72586;SDS011;60621;49.576;11.024;2023-02-28T06:38:07;10.27;;;4.82;;
72586;SDS011;60621;49.576;11.024;2023-02-28T06:39:09;11.07;;;5.20;;
72586;SDS011;60621;49.576;11.024;2023-02-28T06:40:11;9.80;;;5.10;;
72586;SDS011;60621;49.576;11.024;2023-02-28T06:41:14;11.95;;;5.22;;
72586;SDS011;60621;49.576;11.024;2023-02-28T06:42:15;9.90;;;4.72;;
72586;SDS011;60621;49.576;11.024;2023-02-28T06:43:17;10.00;;;4.78;;
72586;SDS011;60621;49.576;11.024;2023-02-28T06:44:18;9.75;;;4.80;;
72586;SDS011;60621;49.576;11.024;2023-02-28T06:45:20;10.15;;;5.53;;
72586;SDS011;60621;49.576;11.024;2023-02-28T06:46:21;10.32;;;4.78;;
72586;SDS011;60621;49.576;11.024;2023-02-28T06:47:24;10.80;;;5.13;;
72586;SDS011;60621;49.576;11.024;2023-02-28T06:48:26;12.45;;;5.28;;